sensor_id;sensor_type;location;lat;lon;timestamp;temperature;humidity
39601;DHT22;25297;44.758;11.310;2024-02-15T00:02:03;9.80;91.70
39601;DHT22;25297;44.758;11.310;2024-02-15T00:04:28;9.80;91.60
39601;DHT22;25297;44.758;11.310;2024-02-15T00:06:54;9.80;91.40
39601;DHT22;25297;44.758;11.310;2024-02-15T00:09:19;9.70;91.90
39601;DHT22;25297;44.758;11.310;2024-02-15T00:11:45;9.80;92.10
39601;DHT22;25297;44.758;11.310;2024-02-15T00:14:11;9.80;92.30
39601;DHT22;25297;44.758;11.310;2024-02-15T00:16:37;9.80;92.60
39601;DHT22;25297;44.758;11.310;2024-02-15T00:19:03;9.90;92.70
39601;DHT22;25297;44.758;11.310;2024-02-15T00:21:28;9.90;92.60
39601;DHT22;25297;44.758;11.310;2024-02-15T00:23:54;10.00;92.40
39601;DHT22;25297;44.758;11.310;2024-02-15T00:26:22;10.00;92.00
39601;DHT22;25297;44.758;11.310;2024-02-15T00:28:47;10.00;91.50
39601;DHT22;25297;44.758;11.310;2024-02-15T00:31:14;10.10;91.20
39601;DHT22;25297;44.758;11.310;2024-02-15T00:33:40;10.10;91.30
39601;DHT22;25297;44.758;11.310;2024-02-15T00:36:06;10.10;91.40
39601;DHT22;25297;44.758;11.310;2024-02-15T00:38:32;10.10;91.30
39601;DHT22;25297;44.758;11.310;2024-02-15T00:40:58;10.10;91.20
39601;DHT22;25297;44.758;11.310;2024-02-15T00:43:29;10.10;91.20
39601;DHT22;25297;44.758;11.310;2024-02-15T00:45:54;10.10;91.30
39601;DHT22;25297;44.758;11.310;2024-02-15T00:48:20;10.10;91.50
39601;DHT22;25297;44.758;11.310;2024-02-15T00:50:46;10.10;91.40
39601;DHT22;25297;44.758;11.310;2024-02-15T00:53:11;10.10;91.40
39601;DHT22;25297;44.758;11.310;2024-02-15T00:55:37;10.10;91.00
39601;DHT22;25297;44.758;11.310;2024-02-15T00:58:04;10.00;91.20
39601;DHT22;25297;44.758;11.310;2024-02-15T01:00:29;10.00;91.00
39601;DHT22;25297;44.758;11.310;2024-02-15T01:02:58;10.10;91.00
39601;DHT22;25297;44.758;11.310;2024-02-15T01:05:23;10.00;90.40
39601;DHT22;25297;44.758;11.310;2024-02-15T01:07:49;10.00;90.60
39601;DHT22;25297;44.758;11.310;2024-02-15T01:10:15;10.10;90.40
39601;DHT22;25297;44.758;11.310;2024-02-15T01:12:41;10.00;90.30
39601;DHT22;25297;44.758;11.310;2024-02-15T01:15:07;10.00;90.40
39601;DHT22;25297;44.758;11.310;2024-02-15T01:17:32;10.00;90.50
39601;DHT22;25297;44.758;11.310;2024-02-15T01:19:58;10.00;90.80
39601;DHT22;25297;44.758;11.310;2024-02-15T01:22:24;10.00;90.40
39601;DHT22;25297;44.758;11.310;2024-02-15T01:24:52;10.00;90.20
39601;DHT22;25297;44.758;11.310;2024-02-15T01:27:18;10.00;90.00
39601;DHT22;25297;44.758;11.310;2024-02-15T01:29:44;9.90;89.80
39601;DHT22;25297;44.758;11.310;2024-02-15T01:32:09;9.90;90.00
39601;DHT22;25297;44.758;11.310;2024-02-15T01:34:35;10.00;90.10
39601;DHT22;25297;44.758;11.310;2024-02-15T01:37:01;10.00;89.20
39601;DHT22;25297;44.758;11.310;2024-02-15T01:39:26;10.00;89.10
39601;DHT22;25297;44.758;11.310;2024-02-15T01:41:52;9.90;88.90
39601;DHT22;25297;44.758;11.310;2024-02-15T01:44:21;9.90;88.80
39601;DHT22;25297;44.758;11.310;2024-02-15T01:46:50;9.90;87.70
39601;DHT22;25297;44.758;11.310;2024-02-15T01:49:17;9.80;87.40
39601;DHT22;25297;44.758;11.310;2024-02-15T01:51:44;9.80;87.30
39601;DHT22;25297;44.758;11.310;2024-02-15T01:54:13;9.70;87.30
39601;DHT22;25297;44.758;11.310;2024-02-15T01:56:42;9.60;87.20
39601;DHT22;25297;44.758;11.310;2024-02-15T01:59:09;9.60;87.40
39601;DHT22;25297;44.758;11.310;2024-02-15T02:01:35;9.50;87.80
39601;DHT22;25297;44.758;11.310;2024-02-15T02:04:01;9.50;88.10
39601;DHT22;25297;44.758;11.310;2024-02-15T02:06:28;9.40;87.80
39601;DHT22;25297;44.758;11.310;2024-02-15T02:08:55;9.40;88.00
39601;DHT22;25297;44.758;11.310;2024-02-15T02:11:22;9.40;88.10
39601;DHT22;25297;44.758;11.310;2024-02-15T02:13:48;9.40;87.70
39601;DHT22;25297;44.758;11.310;2024-02-15T02:18:53;9.30;87.90
39601;DHT22;25297;44.758;11.310;2024-02-15T02:21:19;9.30;88.20
39601;DHT22;25297;44.758;11.310;2024-02-15T02:23:48;9.30;88.10
39601;DHT22;25297;44.758;11.310;2024-02-15T02:26:17;9.20;87.80
39601;DHT22;25297;44.758;11.310;2024-02-15T02:28:43;9.30;88.50
39601;DHT22;25297;44.758;11.310;2024-02-15T02:31:08;9.20;88.70
39601;DHT22;25297;44.758;11.310;2024-02-15T02:33:37;9.20;88.60
39601;DHT22;25297;44.758;11.310;2024-02-15T02:36:03;9.20;88.30
39601;DHT22;25297;44.758;11.310;2024-02-15T02:38:28;9.20;88.40
39601;DHT22;25297;44.758;11.310;2024-02-15T02:40:54;9.10;88.40
39601;DHT22;25297;44.758;11.310;2024-02-15T02:43:19;9.10;89.20
39601;DHT22;25297;44.758;11.310;2024-02-15T02:45:45;9.00;89.50
39601;DHT22;25297;44.758;11.310;2024-02-15T02:48:11;8.90;89.60
39601;DHT22;25297;44.758;11.310;2024-02-15T02:50:37;8.80;89.70
39601;DHT22;25297;44.758;11.310;2024-02-15T02:53:03;9.00;90.00
39601;DHT22;25297;44.758;11.310;2024-02-15T02:55:29;8.70;90.10
39601;DHT22;25297;44.758;11.310;2024-02-15T02:57:55;8.70;90.30
39601;DHT22;25297;44.758;11.310;2024-02-15T03:00:20;8.80;90.30
39601;DHT22;25297;44.758;11.310;2024-02-15T03:02:46;8.80;90.30
39601;DHT22;25297;44.758;11.310;2024-02-15T03:05:13;8.90;90.60
39601;DHT22;25297;44.758;11.310;2024-02-15T03:07:40;8.90;90.30
39601;DHT22;25297;44.758;11.310;2024-02-15T03:10:06;8.90;90.30
39601;DHT22;25297;44.758;11.310;2024-02-15T03:12:39;8.90;90.40
39601;DHT22;25297;44.758;11.310;2024-02-15T03:15:08;9.00;90.40
39601;DHT22;25297;44.758;11.310;2024-02-15T03:17:39;9.00;90.20
39601;DHT22;25297;44.758;11.310;2024-02-15T03:22:57;8.90;89.80
39601;DHT22;25297;44.758;11.310;2024-02-15T03:25:23;8.90;90.00
39601;DHT22;25297;44.758;11.310;2024-02-15T03:27:53;8.90;90.10
39601;DHT22;25297;44.758;11.310;2024-02-15T03:30:20;8.90;90.00
39601;DHT22;25297;44.758;11.310;2024-02-15T03:32:46;8.90;90.20
39601;DHT22;25297;44.758;11.310;2024-02-15T03:35:17;8.90;90.10
39601;DHT22;25297;44.758;11.310;2024-02-15T03:37:43;8.90;90.30
39601;DHT22;25297;44.758;11.310;2024-02-15T03:40:09;8.90;90.20
39601;DHT22;25297;44.758;11.310;2024-02-15T03:42:35;8.90;90.20
39601;DHT22;25297;44.758;11.310;2024-02-15T03:45:06;8.90;90.30
39601;DHT22;25297;44.758;11.310;2024-02-15T03:47:35;8.90;90.30
39601;DHT22;25297;44.758;11.310;2024-02-15T03:50:05;8.90;90.10
39601;DHT22;25297;44.758;11.310;2024-02-15T03:52:31;9.00;89.70
39601;DHT22;25297;44.758;11.310;2024-02-15T03:54:57;9.00;88.90
39601;DHT22;25297;44.758;11.310;2024-02-15T03:57:24;9.00;88.90
39601;DHT22;25297;44.758;11.310;2024-02-15T03:59:49;9.00;89.00
39601;DHT22;25297;44.758;11.310;2024-02-15T04:02:23;9.00;89.10
39601;DHT22;25297;44.758;11.310;2024-02-15T04:04:55;8.90;89.10
39601;DHT22;25297;44.758;11.310;2024-02-15T04:07:21;8.90;89.10
39601;DHT22;25297;44.758;11.310;2024-02-15T04:09:48;8.90;89.20
39601;DHT22;25297;44.758;11.310;2024-02-15T04:12:13;8.90;89.30
39601;DHT22;25297;44.758;11.310;2024-02-15T04:14:40;8.90;89.40
39601;DHT22;25297;44.758;11.310;2024-02-15T04:17:06;8.90;89.20
39601;DHT22;25297;44.758;11.310;2024-02-15T04:19:32;8.90;89.70
39601;DHT22;25297;44.758;11.310;2024-02-15T04:21:58;8.90;89.80
39601;DHT22;25297;44.758;11.310;2024-02-15T04:24:28;8.90;89.70
39601;DHT22;25297;44.758;11.310;2024-02-15T04:26:55;8.90;89.70
39601;DHT22;25297;44.758;11.310;2024-02-15T04:29:20;8.90;89.70
39601;DHT22;25297;44.758;11.310;2024-02-15T04:31:47;9.00;89.60
39601;DHT22;25297;44.758;11.310;2024-02-15T04:34:16;9.00;89.70
39601;DHT22;25297;44.758;11.310;2024-02-15T04:36:45;9.00;89.50
39601;DHT22;25297;44.758;11.310;2024-02-15T04:39:15;9.10;88.90
39601;DHT22;25297;44.758;11.310;2024-02-15T04:41:50;9.10;88.60
39601;DHT22;25297;44.758;11.310;2024-02-15T04:44:16;9.10;88.50
39601;DHT22;25297;44.758;11.310;2024-02-15T04:46:41;9.10;87.70
39601;DHT22;25297;44.758;11.310;2024-02-15T04:49:10;9.10;87.90
39601;DHT22;25297;44.758;11.310;2024-02-15T04:51:36;9.10;87.60
39601;DHT22;25297;44.758;11.310;2024-02-15T04:54:02;9.00;88.00
39601;DHT22;25297;44.758;11.310;2024-02-15T04:56:27;9.00;87.70
39601;DHT22;25297;44.758;11.310;2024-02-15T04:58:54;9.00;88.10
39601;DHT22;25297;44.758;11.310;2024-02-15T05:01:19;9.00;87.70
39601;DHT22;25297;44.758;11.310;2024-02-15T05:03:45;8.90;87.60
39601;DHT22;25297;44.758;11.310;2024-02-15T05:06:12;8.90;87.90
39601;DHT22;25297;44.758;11.310;2024-02-15T05:08:41;8.90;88.20
39601;DHT22;25297;44.758;11.310;2024-02-15T05:11:11;8.80;87.80
39601;DHT22;25297;44.758;11.310;2024-02-15T05:13:45;8.80;87.90
39601;DHT22;25297;44.758;11.310;2024-02-15T05:16:11;8.80;88.00
39601;DHT22;25297;44.758;11.310;2024-02-15T05:18:37;8.80;88.60
39601;DHT22;25297;44.758;11.310;2024-02-15T05:21:05;8.80;88.50
39601;DHT22;25297;44.758;11.310;2024-02-15T05:23:35;8.80;88.10
39601;DHT22;25297;44.758;11.310;2024-02-15T05:26:02;8.80;88.20
39601;DHT22;25297;44.758;11.310;2024-02-15T05:28:29;8.80;88.20
39601;DHT22;25297;44.758;11.310;2024-02-15T05:31:19;8.70;88.30
39601;DHT22;25297;44.758;11.310;2024-02-15T05:33:46;8.80;88.40
39601;DHT22;25297;44.758;11.310;2024-02-15T05:36:20;8.70;87.80
39601;DHT22;25297;44.758;11.310;2024-02-15T05:38:55;8.70;88.30
39601;DHT22;25297;44.758;11.310;2024-02-15T05:41:22;8.70;88.80
39601;DHT22;25297;44.758;11.310;2024-02-15T05:43:48;8.60;88.80
39601;DHT22;25297;44.758;11.310;2024-02-15T05:46:14;8.60;89.10
39601;DHT22;25297;44.758;11.310;2024-02-15T05:48:40;8.60;89.20
39601;DHT22;25297;44.758;11.310;2024-02-15T05:51:07;8.60;89.30
39601;DHT22;25297;44.758;11.310;2024-02-15T05:53:34;8.60;89.30
39601;DHT22;25297;44.758;11.310;2024-02-15T05:56:02;8.70;88.80
39601;DHT22;25297;44.758;11.310;2024-02-15T05:58:30;8.70;89.10
39601;DHT22;25297;44.758;11.310;2024-02-15T06:00:55;8.70;88.90
39601;DHT22;25297;44.758;11.310;2024-02-15T06:03:29;8.70;89.00
39601;DHT22;25297;44.758;11.310;2024-02-15T06:05:55;8.70;89.00
39601;DHT22;25297;44.758;11.310;2024-02-15T06:08:24;8.70;89.00
39601;DHT22;25297;44.758;11.310;2024-02-15T06:10:50;8.70;89.00
39601;DHT22;25297;44.758;11.310;2024-02-15T06:13:16;8.70;88.90
39601;DHT22;25297;44.758;11.310;2024-02-15T06:15:41;8.70;88.70
39601;DHT22;25297;44.758;11.310;2024-02-15T06:18:07;8.60;88.80
39601;DHT22;25297;44.758;11.310;2024-02-15T06:20:35;8.60;89.10
39601;DHT22;25297;44.758;11.310;2024-02-15T06:23:03;8.60;89.40
39601;DHT22;25297;44.758;11.310;2024-02-15T06:25:34;8.60;88.90
39601;DHT22;25297;44.758;11.310;2024-02-15T06:28:00;8.60;89.20
39601;DHT22;25297;44.758;11.310;2024-02-15T06:30:32;8.60;89.00
39601;DHT22;25297;44.758;11.310;2024-02-15T06:33:16;8.60;88.50
39601;DHT22;25297;44.758;11.310;2024-02-15T06:36:04;8.60;88.40
39601;DHT22;25297;44.758;11.310;2024-02-15T06:38:49;8.60;88.60
39601;DHT22;25297;44.758;11.310;2024-02-15T06:41:33;8.50;88.90
39601;DHT22;25297;44.758;11.310;2024-02-15T06:43:59;8.60;89.40
39601;DHT22;25297;44.758;11.310;2024-02-15T06:46:24;8.50;89.70
39601;DHT22;25297;44.758;11.310;2024-02-15T06:48:50;8.60;89.50
39601;DHT22;25297;44.758;11.310;2024-02-15T06:51:15;8.60;89.40
39601;DHT22;25297;44.758;11.310;2024-02-15T06:53:41;8.60;89.20
39601;DHT22;25297;44.758;11.310;2024-02-15T06:56:10;8.60;89.40
39601;DHT22;25297;44.758;11.310;2024-02-15T06:58:37;8.50;89.70
39601;DHT22;25297;44.758;11.310;2024-02-15T07:01:02;8.60;89.90
39601;DHT22;25297;44.758;11.310;2024-02-15T07:03:31;8.60;90.00
39601;DHT22;25297;44.758;11.310;2024-02-15T07:05:57;8.60;89.70
39601;DHT22;25297;44.758;11.310;2024-02-15T07:08:23;8.70;90.20
39601;DHT22;25297;44.758;11.310;2024-02-15T07:10:52;8.70;90.10
39601;DHT22;25297;44.758;11.310;2024-02-15T07:13:18;8.80;89.80
39601;DHT22;25297;44.758;11.310;2024-02-15T07:15:44;8.80;89.20
39601;DHT22;25297;44.758;11.310;2024-02-15T07:18:12;8.80;89.20
39601;DHT22;25297;44.758;11.310;2024-02-15T07:20:41;8.80;89.30
39601;DHT22;25297;44.758;11.310;2024-02-15T07:23:07;8.90;89.20
39601;DHT22;25297;44.758;11.310;2024-02-15T07:25:32;8.90;89.10
39601;DHT22;25297;44.758;11.310;2024-02-15T07:27:58;8.90;89.20
39601;DHT22;25297;44.758;11.310;2024-02-15T07:30:24;8.90;89.70
39601;DHT22;25297;44.758;11.310;2024-02-15T07:32:50;9.00;90.00
39601;DHT22;25297;44.758;11.310;2024-02-15T07:35:16;9.00;90.00
39601;DHT22;25297;44.758;11.310;2024-02-15T07:37:53;9.10;90.30
39601;DHT22;25297;44.758;11.310;2024-02-15T07:40:24;9.10;90.30
39601;DHT22;25297;44.758;11.310;2024-02-15T07:42:54;9.20;90.30
39601;DHT22;25297;44.758;11.310;2024-02-15T07:45:20;9.20;90.20
39601;DHT22;25297;44.758;11.310;2024-02-15T07:47:45;9.30;90.50
39601;DHT22;25297;44.758;11.310;2024-02-15T07:50:17;9.30;90.60
39601;DHT22;25297;44.758;11.310;2024-02-15T07:52:48;9.30;90.80
39601;DHT22;25297;44.758;11.310;2024-02-15T07:55:14;9.40;91.00
39601;DHT22;25297;44.758;11.310;2024-02-15T07:57:40;9.50;91.10
39601;DHT22;25297;44.758;11.310;2024-02-15T08:00:06;9.60;91.40
39601;DHT22;25297;44.758;11.310;2024-02-15T08:02:39;9.70;91.40
39601;DHT22;25297;44.758;11.310;2024-02-15T08:05:11;9.80;91.40
39601;DHT22;25297;44.758;11.310;2024-02-15T08:07:46;9.90;91.40
39601;DHT22;25297;44.758;11.310;2024-02-15T08:10:12;10.10;91.50
39601;DHT22;25297;44.758;11.310;2024-02-15T08:12:48;10.10;91.50
39601;DHT22;25297;44.758;11.310;2024-02-15T08:15:18;10.20;91.50
39601;DHT22;25297;44.758;11.310;2024-02-15T08:17:44;10.30;91.40
39601;DHT22;25297;44.758;11.310;2024-02-15T08:20:14;10.40;91.30
39601;DHT22;25297;44.758;11.310;2024-02-15T08:22:41;10.50;91.10
39601;DHT22;25297;44.758;11.310;2024-02-15T08:25:11;10.60;91.20
39601;DHT22;25297;44.758;11.310;2024-02-15T08:27:48;10.70;91.10
39601;DHT22;25297;44.758;11.310;2024-02-15T08:30:15;10.80;91.20
39601;DHT22;25297;44.758;11.310;2024-02-15T08:32:42;10.80;91.10
39601;DHT22;25297;44.758;11.310;2024-02-15T08:35:12;11.00;91.30
39601;DHT22;25297;44.758;11.310;2024-02-15T08:37:38;11.00;91.60
39601;DHT22;25297;44.758;11.310;2024-02-15T08:40:05;11.10;91.70
39601;DHT22;25297;44.758;11.310;2024-02-15T08:42:43;11.20;91.60
39601;DHT22;25297;44.758;11.310;2024-02-15T08:45:10;11.30;91.50
39601;DHT22;25297;44.758;11.310;2024-02-15T08:47:40;11.40;91.40
39601;DHT22;25297;44.758;11.310;2024-02-15T08:50:07;11.50;91.40
39601;DHT22;25297;44.758;11.310;2024-02-15T08:52:35;11.60;91.40
39601;DHT22;25297;44.758;11.310;2024-02-15T08:55:07;11.70;91.60
39601;DHT22;25297;44.758;11.310;2024-02-15T08:57:35;11.80;91.50
39601;DHT22;25297;44.758;11.310;2024-02-15T09:00:02;11.90;91.40
39601;DHT22;25297;44.758;11.310;2024-02-15T09:02:30;11.90;91.30
39601;DHT22;25297;44.758;11.310;2024-02-15T09:04:57;12.00;91.30
39601;DHT22;25297;44.758;11.310;2024-02-15T09:07:24;12.10;91.40
39601;DHT22;25297;44.758;11.310;2024-02-15T09:09:50;12.20;91.40
39601;DHT22;25297;44.758;11.310;2024-02-15T09:12:15;12.30;91.40
39601;DHT22;25297;44.758;11.310;2024-02-15T09:14:41;12.30;91.40
39601;DHT22;25297;44.758;11.310;2024-02-15T09:17:07;12.40;91.10
39601;DHT22;25297;44.758;11.310;2024-02-15T09:19:36;12.50;91.40
39601;DHT22;25297;44.758;11.310;2024-02-15T09:22:02;12.60;91.40
39601;DHT22;25297;44.758;11.310;2024-02-15T09:24:32;12.70;91.50
39601;DHT22;25297;44.758;11.310;2024-02-15T09:27:02;12.70;91.00
39601;DHT22;25297;44.758;11.310;2024-02-15T09:29:28;12.80;91.10
39601;DHT22;25297;44.758;11.310;2024-02-15T09:32:00;12.90;90.90
39601;DHT22;25297;44.758;11.310;2024-02-15T09:34:28;13.00;90.70
39601;DHT22;25297;44.758;11.310;2024-02-15T09:36:54;13.00;90.50
39601;DHT22;25297;44.758;11.310;2024-02-15T09:39:22;13.10;90.50
39601;DHT22;25297;44.758;11.310;2024-02-15T09:41:48;13.20;90.60
39601;DHT22;25297;44.758;11.310;2024-02-15T09:44:21;13.30;90.50
39601;DHT22;25297;44.758;11.310;2024-02-15T09:46:52;13.30;90.40
39601;DHT22;25297;44.758;11.310;2024-02-15T09:49:19;13.40;90.40
39601;DHT22;25297;44.758;11.310;2024-02-15T09:51:47;13.50;90.50
39601;DHT22;25297;44.758;11.310;2024-02-15T09:54:15;13.50;90.40
39601;DHT22;25297;44.758;11.310;2024-02-15T09:56:48;13.60;90.30
39601;DHT22;25297;44.758;11.310;2024-02-15T09:59:15;13.60;90.20
39601;DHT22;25297;44.758;11.310;2024-02-15T10:01:41;13.70;90.30
39601;DHT22;25297;44.758;11.310;2024-02-15T10:04:08;13.70;90.10
39601;DHT22;25297;44.758;11.310;2024-02-15T10:06:33;13.90;90.20
39601;DHT22;25297;44.758;11.310;2024-02-15T10:09:27;13.90;90.30
39601;DHT22;25297;44.758;11.310;2024-02-15T10:11:58;14.00;90.10
39601;DHT22;25297;44.758;11.310;2024-02-15T10:14:30;14.10;90.00
39601;DHT22;25297;44.758;11.310;2024-02-15T10:16:56;14.10;89.70
39601;DHT22;25297;44.758;11.310;2024-02-15T10:19:23;14.20;89.50
39601;DHT22;25297;44.758;11.310;2024-02-15T10:22:05;14.20;89.50
39601;DHT22;25297;44.758;11.310;2024-02-15T10:24:31;14.30;90.00
39601;DHT22;25297;44.758;11.310;2024-02-15T10:27:03;14.40;89.90
39601;DHT22;25297;44.758;11.310;2024-02-15T10:29:30;14.50;90.00
39601;DHT22;25297;44.758;11.310;2024-02-15T10:32:01;14.50;89.70
39601;DHT22;25297;44.758;11.310;2024-02-15T10:34:27;14.60;89.90
39601;DHT22;25297;44.758;11.310;2024-02-15T10:36:54;14.60;89.70
39601;DHT22;25297;44.758;11.310;2024-02-15T10:39:22;14.70;89.60
39601;DHT22;25297;44.758;11.310;2024-02-15T10:41:53;14.70;90.00
39601;DHT22;25297;44.758;11.310;2024-02-15T10:44:23;14.80;89.80
39601;DHT22;25297;44.758;11.310;2024-02-15T10:46:51;14.80;89.70
39601;DHT22;25297;44.758;11.310;2024-02-15T10:49:24;14.80;89.30
39601;DHT22;25297;44.758;11.310;2024-02-15T10:51:54;14.80;89.40
39601;DHT22;25297;44.758;11.310;2024-02-15T10:54:43;14.90;89.50
39601;DHT22;25297;44.758;11.310;2024-02-15T10:57:12;15.00;89.70
39601;DHT22;25297;44.758;11.310;2024-02-15T11:02:29;15.10;89.50
39601;DHT22;25297;44.758;11.310;2024-02-15T11:04:59;15.10;89.70
39601;DHT22;25297;44.758;11.310;2024-02-15T11:07:30;15.20;89.70
39601;DHT22;25297;44.758;11.310;2024-02-15T11:09:57;15.20;89.90
39601;DHT22;25297;44.758;11.310;2024-02-15T11:12:24;15.30;89.60
39601;DHT22;25297;44.758;11.310;2024-02-15T11:14:51;15.30;89.20
39601;DHT22;25297;44.758;11.310;2024-02-15T11:20:05;15.40;88.90
39601;DHT22;25297;44.758;11.310;2024-02-15T11:22:35;15.40;89.00
39601;DHT22;25297;44.758;11.310;2024-02-15T11:25:05;15.40;89.10
39601;DHT22;25297;44.758;11.310;2024-02-15T11:27:38;15.50;88.60
39601;DHT22;25297;44.758;11.310;2024-02-15T11:30:06;15.50;88.70
39601;DHT22;25297;44.758;11.310;2024-02-15T11:35:13;15.60;88.10
39601;DHT22;25297;44.758;11.310;2024-02-15T11:41:17;15.70;88.30
39601;DHT22;25297;44.758;11.310;2024-02-15T11:46:16;15.80;87.70
39601;DHT22;25297;44.758;11.310;2024-02-15T11:48:46;15.90;88.20
39601;DHT22;25297;44.758;11.310;2024-02-15T11:54:09;16.00;87.70
39601;DHT22;25297;44.758;11.310;2024-02-15T11:56:55;16.00;87.00
39601;DHT22;25297;44.758;11.310;2024-02-15T11:59:43;16.10;87.60
39601;DHT22;25297;44.758;11.310;2024-02-15T12:02:27;16.20;86.70
39601;DHT22;25297;44.758;11.310;2024-02-15T12:05:11;16.20;86.60
39601;DHT22;25297;44.758;11.310;2024-02-15T12:07:58;16.30;86.60
39601;DHT22;25297;44.758;11.310;2024-02-15T12:10:42;16.30;86.00
39601;DHT22;25297;44.758;11.310;2024-02-15T12:13:27;16.40;85.70
39601;DHT22;25297;44.758;11.310;2024-02-15T12:16:15;16.50;86.30
39601;DHT22;25297;44.758;11.310;2024-02-15T12:18:59;16.60;86.90
39601;DHT22;25297;44.758;11.310;2024-02-15T12:21:26;16.70;86.70
39601;DHT22;25297;44.758;11.310;2024-02-15T12:23:53;16.80;86.00
39601;DHT22;25297;44.758;11.310;2024-02-15T12:26:19;16.90;85.80
39601;DHT22;25297;44.758;11.310;2024-02-15T12:28:50;17.00;85.80
39601;DHT22;25297;44.758;11.310;2024-02-15T12:31:17;17.10;85.70
39601;DHT22;25297;44.758;11.310;2024-02-15T12:33:43;17.30;85.50
39601;DHT22;25297;44.758;11.310;2024-02-15T12:36:10;18.10;86.20
39601;DHT22;25297;44.758;11.310;2024-02-15T12:38:35;18.60;86.60
39601;DHT22;25297;44.758;11.310;2024-02-15T12:41:20;19.50;86.20
39601;DHT22;25297;44.758;11.310;2024-02-15T12:43:45;20.60;85.00
39601;DHT22;25297;44.758;11.310;2024-02-15T12:46:11;21.40;81.70
39601;DHT22;25297;44.758;11.310;2024-02-15T12:48:38;22.20;78.70
39601;DHT22;25297;44.758;11.310;2024-02-15T12:51:15;22.70;75.40
39601;DHT22;25297;44.758;11.310;2024-02-15T12:53:42;23.10;74.10
39601;DHT22;25297;44.758;11.310;2024-02-15T12:56:07;24.00;72.90
39601;DHT22;25297;44.758;11.310;2024-02-15T12:58:35;24.40;73.10
39601;DHT22;25297;44.758;11.310;2024-02-15T13:01:00;25.20;70.80
39601;DHT22;25297;44.758;11.310;2024-02-15T13:03:27;26.00;68.20
39601;DHT22;25297;44.758;11.310;2024-02-15T13:05:53;26.70;63.30
39601;DHT22;25297;44.758;11.310;2024-02-15T13:08:19;26.90;64.00
39601;DHT22;25297;44.758;11.310;2024-02-15T13:10:45;27.50;63.60
39601;DHT22;25297;44.758;11.310;2024-02-15T13:13:12;27.90;62.00
39601;DHT22;25297;44.758;11.310;2024-02-15T13:15:40;28.20;60.20
39601;DHT22;25297;44.758;11.310;2024-02-15T13:18:06;28.20;59.40
39601;DHT22;25297;44.758;11.310;2024-02-15T13:20:35;28.00;58.50
39601;DHT22;25297;44.758;11.310;2024-02-15T13:23:10;27.70;58.40
39601;DHT22;25297;44.758;11.310;2024-02-15T13:25:56;27.40;58.80
39601;DHT22;25297;44.758;11.310;2024-02-15T13:28:22;27.40;59.30
39601;DHT22;25297;44.758;11.310;2024-02-15T13:30:50;27.50;59.20
39601;DHT22;25297;44.758;11.310;2024-02-15T13:33:19;27.70;58.50
39601;DHT22;25297;44.758;11.310;2024-02-15T13:35:45;27.80;58.20
39601;DHT22;25297;44.758;11.310;2024-02-15T13:38:12;27.90;57.60
39601;DHT22;25297;44.758;11.310;2024-02-15T13:40:48;28.00;57.20
39601;DHT22;25297;44.758;11.310;2024-02-15T13:43:17;27.80;56.40
39601;DHT22;25297;44.758;11.310;2024-02-15T13:45:44;27.60;56.50
39601;DHT22;25297;44.758;11.310;2024-02-15T13:48:11;27.20;56.30
39601;DHT22;25297;44.758;11.310;2024-02-15T13:50:40;26.90;57.00
39601;DHT22;25297;44.758;11.310;2024-02-15T13:53:06;26.50;57.00
39601;DHT22;25297;44.758;11.310;2024-02-15T13:55:32;26.00;57.30
39601;DHT22;25297;44.758;11.310;2024-02-15T13:57:58;25.50;58.70
39601;DHT22;25297;44.758;11.310;2024-02-15T14:00:26;25.10;59.10
39601;DHT22;25297;44.758;11.310;2024-02-15T14:03:02;24.60;59.20
39601;DHT22;25297;44.758;11.310;2024-02-15T14:05:31;24.10;60.70
39601;DHT22;25297;44.758;11.310;2024-02-15T14:10:29;23.40;61.80
39601;DHT22;25297;44.758;11.310;2024-02-15T14:12:55;23.00;62.80
39601;DHT22;25297;44.758;11.310;2024-02-15T14:15:21;22.40;63.40
39601;DHT22;25297;44.758;11.310;2024-02-15T14:17:47;22.30;64.00
39601;DHT22;25297;44.758;11.310;2024-02-15T14:20:13;22.10;64.60
39601;DHT22;25297;44.758;11.310;2024-02-15T14:22:45;21.90;65.40
39601;DHT22;25297;44.758;11.310;2024-02-15T14:25:11;21.80;65.60
39601;DHT22;25297;44.758;11.310;2024-02-15T14:27:40;21.80;65.80
39601;DHT22;25297;44.758;11.310;2024-02-15T14:30:06;21.70;66.00
39601;DHT22;25297;44.758;11.310;2024-02-15T14:32:51;21.70;66.50
39601;DHT22;25297;44.758;11.310;2024-02-15T14:35:27;21.50;65.30
39601;DHT22;25297;44.758;11.310;2024-02-15T14:37:56;21.50;65.80
39601;DHT22;25297;44.758;11.310;2024-02-15T14:40:27;21.30;65.90
39601;DHT22;25297;44.758;11.310;2024-02-15T14:42:54;21.10;66.60
39601;DHT22;25297;44.758;11.310;2024-02-15T14:45:19;20.90;66.60
39601;DHT22;25297;44.758;11.310;2024-02-15T14:47:46;20.90;67.40
39601;DHT22;25297;44.758;11.310;2024-02-15T14:50:12;20.90;67.10
39601;DHT22;25297;44.758;11.310;2024-02-15T14:52:39;21.00;67.40
39601;DHT22;25297;44.758;11.310;2024-02-15T14:55:05;21.10;66.40
39601;DHT22;25297;44.758;11.310;2024-02-15T14:57:33;21.10;66.90
39601;DHT22;25297;44.758;11.310;2024-02-15T14:59:59;21.10;66.90
39601;DHT22;25297;44.758;11.310;2024-02-15T15:02:25;21.10;67.00
39601;DHT22;25297;44.758;11.310;2024-02-15T15:04:51;21.00;67.20
39601;DHT22;25297;44.758;11.310;2024-02-15T15:07:44;20.90;67.00
39601;DHT22;25297;44.758;11.310;2024-02-15T15:10:28;20.80;67.20
39601;DHT22;25297;44.758;11.310;2024-02-15T15:13:12;20.60;67.70
39601;DHT22;25297;44.758;11.310;2024-02-15T15:15:38;20.40;67.80
39601;DHT22;25297;44.758;11.310;2024-02-15T15:18:06;20.30;68.50
39601;DHT22;25297;44.758;11.310;2024-02-15T15:20:33;20.20;68.80
39601;DHT22;25297;44.758;11.310;2024-02-15T15:23:00;20.00;69.20
39601;DHT22;25297;44.758;11.310;2024-02-15T15:25:26;19.90;69.50
39601;DHT22;25297;44.758;11.310;2024-02-15T15:27:55;19.70;70.20
39601;DHT22;25297;44.758;11.310;2024-02-15T15:30:22;19.60;70.90
39601;DHT22;25297;44.758;11.310;2024-02-15T15:32:48;19.50;69.90
39601;DHT22;25297;44.758;11.310;2024-02-15T15:35:15;19.20;69.20
39601;DHT22;25297;44.758;11.310;2024-02-15T15:37:46;19.20;69.80
39601;DHT22;25297;44.758;11.310;2024-02-15T15:40:12;19.20;69.90
39601;DHT22;25297;44.758;11.310;2024-02-15T15:42:39;19.00;70.20
39601;DHT22;25297;44.758;11.310;2024-02-15T15:45:06;19.00;70.50
39601;DHT22;25297;44.758;11.310;2024-02-15T15:47:33;18.90;70.70
39601;DHT22;25297;44.758;11.310;2024-02-15T15:49:58;18.80;70.80
39601;DHT22;25297;44.758;11.310;2024-02-15T15:52:24;18.80;71.20
39601;DHT22;25297;44.758;11.310;2024-02-15T15:54:50;18.60;71.60
39601;DHT22;25297;44.758;11.310;2024-02-15T15:57:16;18.50;72.00